Time;durP1;ratioP1;P1;durP2;ratioP2;P2;SDS_P1;SDS_P2;PMS_P1;PMS_P2;Temp;Humidity;BMP_temperature;BMP_pressure;BME280_temperature;BME280_humidity;BME280_pressure;Samples;Min_cycle;Max_cycle;Signal;HPM_P1;HPM_P2
2023/02/26 00:01:17;;;;;;;2.67;1.70;;;-0.10;99.90;;;;;;7384794;19;20315;-81
2023/02/26 00:03:43;;;;;;;2.13;1.75;;;-0.10;99.90;;;;;;7387663;19;20392;-80
2023/02/26 00:06:09;;;;;;;1.80;1.70;;;-0.10;99.90;;;;;;7386516;19;20406;-79
2023/02/26 00:08:35;;;;;;;1.92;1.75;;;0.00;99.90;;;;;;7388640;19;20368;-80
2023/02/26 00:11:00;;;;;;;2.03;1.80;;;-0.10;99.90;;;;;;7397609;19;20380;-87
2023/02/26 00:13:27;;;;;;;1.80;1.70;;;0.00;99.90;;;;;;7388927;19;20346;-85
2023/02/26 00:15:57;;;;;;;1.58;1.48;;;0.00;99.90;;;;;;7386054;19;20344;-80
2023/02/26 00:18:24;;;;;;;2.72;2.08;;;0.10;99.90;;;;;;7384609;19;20319;-81
2023/02/26 00:20:50;;;;;;;1.85;1.73;;;0.00;99.90;;;;;;7386748;19;20340;-80
2023/02/26 00:23:17;;;;;;;2.58;1.80;;;0.00;99.90;;;;;;7383613;19;20328;-82
2023/02/26 00:25:43;;;;;;;2.40;1.70;;;0.00;99.90;;;;;;7384343;19;21047;-82
2023/02/26 00:28:09;;;;;;;1.73;1.60;;;-0.10;99.90;;;;;;7383640;19;20308;-81
2023/02/26 00:30:36;;;;;;;2.03;1.73;;;0.00;99.90;;;;;;7386380;19;20317;-86
2023/02/26 00:33:01;;;;;;;2.13;1.87;;;-0.10;99.90;;;;;;7385397;19;21012;-84
2023/02/26 00:35:30;;;;;;;1.90;1.80;;;0.00;99.90;;;;;;7384795;19;20372;-83
2023/02/26 00:38:02;;;;;;;2.33;1.63;;;-0.10;99.90;;;;;;7382877;19;20365;-81
2023/02/26 00:40:47;;;;;;;1.63;1.50;;;-0.10;99.90;;;;;;7383078;19;20293;-84
2023/02/26 00:43:17;;;;;;;1.80;1.70;;;-0.10;99.90;;;;;;7277347;19;2004499;-81
2023/02/26 00:46:14;;;;;;;1.60;1.50;;;-0.10;99.90;;;;;;7384829;19;20873;-82
2023/02/26 00:49:14;;;;;;;2.03;1.87;;;-0.10;99.90;;;;;;7279761;19;2004434;-80
2023/02/26 00:51:48;;;;;;;2.83;2.00;;;-0.10;99.90;;;;;;7280996;19;2004306;-83
2023/02/26 00:54:24;;;;;;;2.13;1.50;;;-0.10;99.90;;;;;;7395197;19;20316;-90
2023/02/26 00:56:50;;;;;;;1.80;1.70;;;-0.10;99.90;;;;;;7400148;19;20388;-82
2023/02/26 00:59:16;;;;;;;2.10;1.85;;;-0.20;99.90;;;;;;7397539;19;20335;-83
2023/02/26 01:01:42;;;;;;;1.90;1.80;;;-0.20;99.90;;;;;;7396828;19;20340;-84
2023/02/26 01:04:08;;;;;;;1.70;1.60;;;-0.20;99.90;;;;;;7395288;19;20317;-83
2023/02/26 01:06:35;;;;;;;2.40;1.83;;;-0.10;99.90;;;;;;7398619;19;20361;-83
2023/02/26 01:09:12;;;;;;;1.90;1.80;;;-0.10;99.90;;;;;;7397708;19;20300;-86
2023/02/26 01:11:38;;;;;;;2.03;1.90;;;-0.10;99.90;;;;;;7293775;19;2004370;-82
2023/02/26 01:14:04;;;;;;;2.70;1.80;;;-0.20;99.90;;;;;;7395599;19;20380;-86
2023/02/26 01:16:34;;;;;;;2.30;2.00;;;-0.20;99.90;;;;;;7395114;19;20324;-78
2023/02/26 01:19:14;;;;;;;1.93;1.77;;;-0.20;99.90;;;;;;7392021;19;20349;-83
2023/02/26 01:21:41;;;;;;;1.95;1.80;;;-0.30;99.90;;;;;;7290464;19;2004312;-82
2023/02/26 01:24:07;;;;;;;2.60;1.80;;;-0.20;99.90;;;;;;7394988;19;20320;-82
2023/02/26 01:26:33;;;;;;;2.20;1.80;;;-0.30;99.90;;;;;;7395483;19;20372;-86
2023/02/26 01:28:59;;;;;;;1.73;1.57;;;-0.30;99.90;;;;;;7397173;19;20334;-90
2023/02/26 01:31:48;;;;;;;1.60;1.50;;;-0.30;99.90;;;;;;7395179;19;20325;-91
2023/02/26 01:34:41;;;;;;;1.75;1.65;;;-0.20;99.90;;;;;;7291536;19;2004199;-85
2023/02/26 01:37:36;;;;;;;1.60;1.50;;;-0.20;99.90;;;;;;7278484;19;2004653;-80
2023/02/26 01:40:16;;;;;;;1.90;1.67;;;-0.40;99.90;;;;;;7394729;19;20326;-84
2023/02/26 01:42:43;;;;;;;1.60;1.50;;;-0.40;99.90;;;;;;7289779;19;2004297;-79
2023/02/26 01:45:10;;;;;;;2.83;1.75;;;-0.40;99.90;;;;;;7383058;19;20374;-81
2023/02/26 01:47:47;;;;;;;1.90;1.77;;;-0.40;99.90;;;;;;7385459;19;20312;-82
2023/02/26 01:50:15;;;;;;;1.63;1.52;;;-0.40;99.90;;;;;;7282441;19;2004272;-79
2023/02/26 01:52:47;;;;;;;2.63;1.80;;;-0.30;99.90;;;;;;7382262;19;20456;-80
2023/02/26 01:55:18;;;;;;;1.55;1.45;;;-0.30;99.90;;;;;;7389227;19;20308;-81
2023/02/26 01:57:56;;;;;;;1.60;1.50;;;-0.20;99.90;;;;;;7388943;19;20312;-81
2023/02/26 02:00:22;;;;;;;1.73;1.63;;;-0.30;99.90;;;;;;7389568;19;20317;-83
2023/02/26 02:02:54;;;;;;;1.60;1.47;;;-0.20;99.90;;;;;;7388903;19;20312;-83
2023/02/26 02:05:41;;;;;;;1.85;1.60;;;-0.30;99.90;;;;;;7389021;19;20323;-82
2023/02/26 02:08:07;;;;;;;1.90;1.60;;;-0.30;99.90;;;;;;7286570;19;2004185;-86
2023/02/26 02:10:33;;;;;;;1.80;1.53;;;-0.40;99.90;;;;;;7390040;19;20319;-81
2023/02/26 02:13:04;;;;;;;1.98;1.77;;;-0.30;99.90;;;;;;7387942;19;20837;-81
2023/02/26 02:15:40;;;;;;;1.93;1.60;;;-0.40;99.90;;;;;;7389113;19;21221;-81
2023/02/26 02:18:37;;;;;;;1.58;1.40;;;-0.40;99.90;;;;;;7389001;19;20324;-82
2023/02/26 02:21:22;;;;;;;1.80;1.70;;;-0.40;99.90;;;;;;7286910;19;2005831;-81
2023/02/26 02:24:01;;;;;;;1.80;1.60;;;-0.50;99.90;;;;;;7285665;19;2004278;-84
2023/02/26 02:26:53;;;;;;;2.05;1.50;;;-0.50;99.90;;;;;;7388069;19;21825;-84
2023/02/26 02:29:32;;;;;;;3.22;1.80;;;-0.40;99.90;;;;;;7286684;19;2004574;-89
2023/02/26 02:32:10;;;;;;;1.83;1.45;;;-0.40;99.90;;;;;;7404754;19;20337;-82
2023/02/26 02:34:57;;;;;;;1.42;1.33;;;-0.40;99.90;;;;;;7389699;19;20343;-78
2023/02/26 02:37:40;;;;;;;2.17;1.52;;;-0.50;99.90;;;;;;7294358;19;2004486;-91
2023/02/26 02:40:10;;;;;;;1.60;1.50;;;-0.50;99.90;;;;;;7407296;19;20309;-91
2023/02/26 02:42:41;;;;;;;1.73;1.50;;;-0.50;99.90;;;;;;7408725;19;20312;-93
2023/02/26 02:45:27;;;;;;;1.80;1.40;;;-0.50;99.90;;;;;;7306543;19;2004189;-90
2023/02/26 02:47:56;;;;;;;1.50;1.40;;;-0.50;99.90;;;;;;7406930;19;20324;-92
2023/02/26 02:50:26;;;;;;;1.60;1.50;;;-0.50;99.90;;;;;;7407653;19;20356;-88
2023/02/26 02:53:01;;;;;;;2.95;1.58;;;-0.50;99.90;;;;;;7409523;19;20323;-86
2023/02/26 02:55:30;;;;;;;3.75;1.58;;;-0.50;99.90;;;;;;7406771;19;20336;-90
2023/02/26 02:58:02;;;;;;;1.40;1.20;;;-0.50;99.90;;;;;;7408610;19;20336;-90
2023/02/26 03:00:30;;;;;;;1.95;1.55;;;-0.50;99.90;;;;;;7410282;19;20313;-90
2023/02/26 03:03:28;;;;;;;2.95;1.50;;;-0.50;99.90;;;;;;7397550;19;20503;-85
2023/02/26 03:05:54;;;;;;;2.30;1.38;;;-0.50;99.90;;;;;;7282874;19;2004581;-81
2023/02/26 03:08:23;;;;;;;1.60;1.50;;;-0.50;99.90;;;;;;7388400;19;20345;-82
2023/02/26 03:10:49;;;;;;;2.67;1.40;;;-0.40;99.90;;;;;;7387382;19;20376;-83
2023/02/26 03:13:21;;;;;;;1.63;1.40;;;-0.40;99.90;;;;;;7389337;19;20333;-85
2023/02/26 03:16:18;;;;;;;2.05;1.60;;;-0.50;99.90;;;;;;7389480;19;20360;-83
2023/02/26 03:18:59;;;;;;;1.40;1.30;;;-0.50;99.90;;;;;;7287210;19;2004411;-83
2023/02/26 03:21:47;;;;;;;1.50;1.40;;;-0.50;99.90;;;;;;7390556;19;20965;-84
2023/02/26 03:24:39;;;;;;;1.57;1.27;;;-0.60;99.90;;;;;;7287132;19;2004286;-81
2023/02/26 03:27:06;;;;;;;2.40;1.50;;;-0.60;99.90;;;;;;7390152;19;20944;-81
2023/02/26 03:29:46;;;;;;;1.83;1.48;;;-0.70;99.90;;;;;;7392541;19;20320;-83
2023/02/26 03:32:34;;;;;;;1.70;1.60;;;-0.70;99.90;;;;;;7286587;19;2004255;-83
2023/02/26 03:35:25;;;;;;;1.42;1.33;;;-0.70;99.90;;;;;;7399593;19;20392;-89
2023/02/26 03:37:53;;;;;;;1.38;1.17;;;-0.80;99.90;;;;;;7298931;19;2004288;-88
2023/02/26 03:40:38;;;;;;;1.30;1.20;;;-0.70;99.90;;;;;;7405073;19;20321;-91
2023/02/26 03:43:29;;;;;;;1.38;1.27;;;-0.80;99.90;;;;;;7401816;19;20316;-88
2023/02/26 03:45:57;;;;;;;1.08;1.02;;;-0.70;99.90;;;;;;7300770;19;2004172;-92
2023/02/26 03:48:25;;;;;;;1.40;1.30;;;-0.70;99.90;;;;;;7405141;19;20361;-91
2023/02/26 03:50:53;;;;;;;1.80;1.40;;;-0.70;99.90;;;;;;7406662;19;20305;-91
2023/02/26 03:54:03;;;;;;;1.17;1.10;;;-0.80;99.90;;;;;;7408437;19;20336;-88
2023/02/26 03:56:35;;;;;;;1.30;1.20;;;-0.80;99.90;;;;;;7304316;19;2004190;-92
2023/02/26 03:59:09;;;;;;;1.58;1.48;;;-0.90;99.90;;;;;;7304997;19;2004362;-88
2023/02/26 04:02:26;;;;;;;1.35;1.23;;;-0.90;99.90;;;;;;7405001;19;20382;-92
2023/02/26 04:05:00;;;;;;;1.37;1.27;;;-0.90;99.90;;;;;;7290560;19;2004404;-82
2023/02/26 04:07:26;;;;;;;1.73;1.43;;;-0.90;99.90;;;;;;7385444;19;21157;-81
2023/02/26 04:09:52;;;;;;;1.40;1.30;;;-0.90;99.90;;;;;;7388044;19;20341;-80
2023/02/26 04:12:23;;;;;;;1.87;1.40;;;-0.90;99.90;;;;;;7384195;19;20337;-83
2023/02/26 04:14:51;;;;;;;1.80;1.35;;;-0.90;99.90;;;;;;7385608;19;21163;-86
2023/02/26 04:17:17;;;;;;;1.45;1.20;;;-0.90;99.90;;;;;;7384539;19;20320;-87
2023/02/26 04:19:43;;;;;;;1.83;1.20;;;-0.90;99.90;;;;;;7385750;19;20414;-79
2023/02/26 04:22:08;;;;;;;1.93;1.40;;;-0.90;99.90;;;;;;7385991;19;20324;-81
2023/02/26 04:24:35;;;;;;;1.27;1.17;;;-0.90;99.90;;;;;;7385560;19;20300;-79
2023/02/26 04:27:01;;;;;;;1.35;1.30;;;-0.90;99.90;;;;;;7386196;19;20308;-83
2023/02/26 04:29:27;;;;;;;1.35;1.25;;;-0.90;99.90;;;;;;7390297;19;22159;-91
2023/02/26 04:36:33;;;;;;;2.00;1.40;;;-0.90;99.90;;;;;;7409515;19;20370;-86
2023/02/26 04:38:59;;;;;;;1.60;1.50;;;-1.00;99.90;;;;;;7399997;19;20684;-94
2023/02/26 04:41:25;;;;;;;1.08;1.08;;;-0.90;99.90;;;;;;7403325;19;20405;-91
2023/02/26 04:43:50;;;;;;;1.20;1.10;;;-0.80;99.90;;;;;;7400204;19;20803;-92
2023/02/26 04:46:23;;;;;;;1.10;1.00;;;-0.90;99.90;;;;;;7404946;19;20328;-91
2023/02/26 04:48:49;;;;;;;2.70;1.30;;;-0.90;99.90;;;;;;7403845;19;20359;-88
2023/02/26 04:51:15;;;;;;;1.35;1.23;;;-0.80;99.90;;;;;;7404036;19;20344;-84
2023/02/26 04:53:42;;;;;;;1.50;1.40;;;-0.90;99.90;;;;;;7400086;19;20357;-88
2023/02/26 04:56:08;;;;;;;1.48;1.38;;;-0.90;99.90;;;;;;7403823;19;20340;-86
2023/02/26 04:58:34;;;;;;;1.25;1.20;;;-0.90;99.90;;;;;;7402615;19;21285;-90
2023/02/26 05:01:05;;;;;;;2.45;1.40;;;-1.00;99.90;;;;;;7402494;19;20321;-89
2023/02/26 05:03:30;;;;;;;1.10;1.10;;;-0.90;99.90;;;;;;7405491;19;20356;-91
2023/02/26 05:05:56;;;;;;;1.27;1.17;;;-1.00;99.90;;;;;;7405527;19;20328;-89
2023/02/26 05:08:29;;;;;;;1.80;1.50;;;-0.90;99.90;;;;;;7404525;19;20305;-79
2023/02/26 05:10:55;;;;;;;1.25;1.20;;;-1.00;99.90;;;;;;7386373;19;20317;-82
2023/02/26 05:13:20;;;;;;;1.50;1.20;;;-0.90;99.90;;;;;;7385528;19;20384;-87
2023/02/26 05:15:46;;;;;;;1.33;1.23;;;-0.90;99.90;;;;;;7398656;19;20352;-87
2023/02/26 05:18:11;;;;;;;2.60;1.30;;;-0.90;99.90;;;;;;7401957;19;20328;-94
2023/02/26 05:20:37;;;;;;;1.60;1.10;;;-0.90;99.90;;;;;;7400642;19;20345;-86
2023/02/26 05:23:03;;;;;;;1.33;1.20;;;-0.80;99.90;;;;;;7386670;19;20337;-81
2023/02/26 05:25:37;;;;;;;1.53;1.30;;;-0.90;99.90;;;;;;7385471;19;20305;-81
2023/02/26 05:28:04;;;;;;;2.33;1.33;;;-0.90;99.90;;;;;;7386098;19;20293;-81
2023/02/26 05:30:30;;;;;;;1.30;1.10;;;-0.90;99.90;;;;;;7386464;19;20304;-82
2023/02/26 05:32:56;;;;;;;1.40;1.30;;;-1.00;99.90;;;;;;7382741;19;20418;-81
2023/02/26 05:35:23;;;;;;;3.20;1.23;;;-1.00;99.90;;;;;;7384851;19;20356;-80
2023/02/26 05:37:49;;;;;;;1.53;1.43;;;-1.10;99.90;;;;;;7383351;19;20304;-79
2023/02/26 05:40:15;;;;;;;1.33;1.23;;;-1.10;99.90;;;;;;7384787;19;20799;-81
2023/02/26 05:42:40;;;;;;;1.33;1.23;;;-1.10;99.90;;;;;;7385709;19;20326;-82
2023/02/26 05:45:06;;;;;;;1.30;1.13;;;-1.10;99.90;;;;;;7385672;19;20321;-82
2023/02/26 05:47:36;;;;;;;1.55;1.35;;;-1.10;99.90;;;;;;7385194;19;20878;-81
2023/02/26 05:50:03;;;;;;;3.60;1.45;;;-1.10;99.90;;;;;;7386479;19;20334;-80
2023/02/26 05:52:29;;;;;;;2.80;1.45;;;-1.10;99.90;;;;;;7384585;19;20316;-79
2023/02/26 05:54:54;;;;;;;1.43;1.20;;;-1.10;99.90;;;;;;7385168;19;20296;-83
2023/02/26 05:57:21;;;;;;;2.90;1.20;;;-1.10;99.90;;;;;;7385642;19;20337;-81
2023/02/26 05:59:46;;;;;;;3.15;1.30;;;-1.10;99.90;;;;;;7385983;19;20301;-80
2023/02/26 06:02:12;;;;;;;1.60;1.40;;;-1.10;99.90;;;;;;7392858;19;20894;-87
2023/02/26 06:04:37;;;;;;;2.00;1.37;;;-1.10;99.90;;;;;;7395918;19;20360;-83
2023/02/26 06:07:03;;;;;;;1.40;1.10;;;-1.10;99.90;;;;;;7397807;19;21933;-86
2023/02/26 06:09:29;;;;;;;1.00;1.00;;;-1.10;99.90;;;;;;7396454;19;20849;-91
2023/02/26 06:11:54;;;;;;;1.53;1.30;;;-1.00;99.90;;;;;;7394152;19;20337;-87
2023/02/26 06:14:20;;;;;;;1.37;1.20;;;-1.00;99.90;;;;;;7393057;19;20339;-90
2023/02/26 06:16:46;;;;;;;1.60;1.50;;;-0.90;99.90;;;;;;7393182;19;20352;-88
2023/02/26 06:19:11;;;;;;;2.33;1.20;;;-1.00;99.90;;;;;;7393121;19;20341;-85
2023/02/26 06:21:37;;;;;;;1.00;1.00;;;-1.00;99.90;;;;;;7397064;19;20340;-90
2023/02/26 06:24:03;;;;;;;1.92;1.40;;;-1.00;99.90;;;;;;7391201;19;20384;-87
2023/02/26 06:26:28;;;;;;;1.17;1.17;;;-1.00;99.90;;;;;;7395441;19;20331;-88
2023/02/26 06:28:54;;;;;;;1.77;1.20;;;-1.10;99.90;;;;;;7394191;19;20456;-91
2023/02/26 06:31:19;;;;;;;1.87;1.13;;;-1.10;99.90;;;;;;7392476;19;20335;-85
2023/02/26 06:33:45;;;;;;;2.63;1.20;;;-0.90;99.90;;;;;;7392175;19;20355;-81
2023/02/26 06:36:10;;;;;;;2.10;1.23;;;-0.90;99.90;;;;;;7395342;19;20791;-87
2023/02/26 06:38:36;;;;;;;2.13;1.23;;;-0.90;99.90;;;;;;7396681;19;20346;-86
2023/02/26 06:41:02;;;;;;;2.60;1.10;;;-1.00;99.90;;;;;;7398759;19;20316;-87
2023/02/26 06:43:27;;;;;;;1.65;1.20;;;-0.90;99.90;;;;;;7400047;19;21676;-84
2023/02/26 06:45:56;;;;;;;3.10;1.30;;;-0.80;99.90;;;;;;7403661;19;20417;-88
2023/02/26 06:48:22;;;;;;;1.57;1.10;;;-0.80;99.90;;;;;;7400477;19;20332;-86
2023/02/26 06:50:48;;;;;;;1.30;1.20;;;-0.80;99.90;;;;;;7398766;19;20378;-86
2023/02/26 06:53:14;;;;;;;1.00;1.00;;;-0.80;99.90;;;;;;7396296;19;20331;-84
2023/02/26 06:55:45;;;;;;;1.27;1.17;;;-0.70;99.90;;;;;;7400336;19;20860;-84
2023/02/26 06:58:11;;;;;;;1.30;1.20;;;-0.70;99.90;;;;;;7402279;19;20393;-82
2023/02/26 07:00:37;;;;;;;2.65;1.17;;;-0.70;99.90;;;;;;7402211;19;20384;-88
2023/02/26 07:03:03;;;;;;;1.65;1.20;;;-0.60;99.90;;;;;;7401016;19;20828;-86
2023/02/26 07:05:29;;;;;;;1.40;1.30;;;-0.60;99.90;;;;;;7400624;19;20349;-85
2023/02/26 07:07:54;;;;;;;2.57;1.40;;;-0.50;99.90;;;;;;7399151;19;20332;-87
2023/02/26 07:10:24;;;;;;;2.33;1.50;;;-0.50;99.90;;;;;;7400933;19;20359;-91
2023/02/26 07:12:50;;;;;;;2.35;1.35;;;-0.40;99.90;;;;;;7397834;19;20325;-84
2023/02/26 07:15:15;;;;;;;2.58;1.63;;;-0.40;99.90;;;;;;7396801;19;20353;-78
2023/02/26 07:17:41;;;;;;;1.77;1.20;;;-0.50;99.90;;;;;;7395473;19;20320;-83
2023/02/26 07:20:09;;;;;;;1.37;1.27;;;-0.50;99.90;;;;;;7394570;19;20316;-85
2023/02/26 07:22:35;;;;;;;2.25;1.40;;;-0.50;99.90;;;;;;7399490;19;20297;-84
2023/02/26 07:25:01;;;;;;;2.70;1.35;;;-0.50;99.90;;;;;;7390365;19;20328;-85
2023/02/26 07:27:28;;;;;;;1.75;1.42;;;-0.40;99.90;;;;;;7391203;19;20332;-81
2023/02/26 07:29:54;;;;;;;1.40;1.27;;;-0.40;99.90;;;;;;7400632;19;20348;-81
2023/02/26 07:32:20;;;;;;;2.95;1.40;;;-0.50;99.90;;;;;;7391604;19;20349;-87
2023/02/26 07:34:45;;;;;;;2.17;1.40;;;-0.40;99.90;;;;;;7389863;19;20417;-81
2023/02/26 07:37:11;;;;;;;2.15;1.52;;;-0.40;99.90;;;;;;7391896;19;20324;-87
2023/02/26 07:39:36;;;;;;;2.70;1.57;;;-0.50;99.90;;;;;;7388162;19;20348;-80
2023/02/26 07:42:02;;;;;;;2.17;1.50;;;-0.40;99.90;;;;;;7389950;19;20652;-83
2023/02/26 07:44:28;;;;;;;4.20;1.73;;;-0.40;99.90;;;;;;7389603;19;20331;-80
2023/02/26 07:46:53;;;;;;;2.27;1.40;;;-0.40;99.90;;;;;;7390026;19;20391;-80
2023/02/26 07:49:19;;;;;;;3.22;1.55;;;-0.40;99.90;;;;;;7390529;19;20364;-82
2023/02/26 07:51:45;;;;;;;1.80;1.53;;;-0.30;99.90;;;;;;7382253;19;20348;-81
2023/02/26 07:54:13;;;;;;;2.37;1.40;;;-0.10;99.90;;;;;;7386880;19;20320;-82
2023/02/26 07:56:40;;;;;;;1.05;1.00;;;-0.30;99.90;;;;;;7387394;19;20437;-82
2023/02/26 07:59:05;;;;;;;1.80;1.33;;;-0.20;99.90;;;;;;7388752;19;20431;-90
2023/02/26 08:01:31;;;;;;;1.50;1.40;;;-0.20;99.90;;;;;;7387619;19;20317;-83
2023/02/26 08:03:58;;;;;;;3.00;1.40;;;-0.20;99.90;;;;;;7385030;19;20437;-83
2023/02/26 08:06:23;;;;;;;2.25;1.40;;;-0.30;99.90;;;;;;7386238;19;20341;-80
2023/02/26 08:08:49;;;;;;;1.00;1.00;;;-0.30;99.90;;;;;;7392296;19;20336;-86
2023/02/26 08:11:15;;;;;;;1.02;1.00;;;-0.40;99.90;;;;;;7392806;19;20362;-80
2023/02/26 08:13:41;;;;;;;1.50;1.40;;;-0.30;99.90;;;;;;7376141;19;21296;-81
2023/02/26 08:16:07;;;;;;;1.83;1.15;;;-0.20;99.90;;;;;;7391416;19;20412;-80
2023/02/26 08:18:32;;;;;;;2.43;1.60;;;-0.10;99.90;;;;;;7387878;19;20315;-85
2023/02/26 08:20:58;;;;;;;1.40;1.30;;;0.00;99.90;;;;;;7385156;19;20760;-79
2023/02/26 08:23:25;;;;;;;1.50;1.40;;;0.10;99.90;;;;;;7380254;19;20352;-78
2023/02/26 08:25:58;;;;;;;1.85;1.40;;;0.10;99.90;;;;;;7383472;19;20349;-79
2023/02/26 08:28:23;;;;;;;1.55;1.45;;;0.20;99.90;;;;;;7383464;19;20352;-83
2023/02/26 08:30:52;;;;;;;3.28;1.75;;;0.20;99.90;;;;;;7381762;19;20376;-80
2023/02/26 08:33:18;;;;;;;1.50;1.40;;;0.30;99.90;;;;;;7372474;19;20356;-80
2023/02/26 08:35:44;;;;;;;2.83;1.70;;;0.30;99.90;;;;;;7378775;19;20340;-80
2023/02/26 08:38:11;;;;;;;1.17;1.10;;;0.40;99.90;;;;;;7380593;19;20336;-83
2023/02/26 08:40:36;;;;;;;2.35;1.85;;;0.50;99.90;;;;;;7384248;19;20341;-80
2023/02/26 08:43:03;;;;;;;3.47;1.50;;;0.50;99.90;;;;;;7383587;19;20340;-80
2023/02/26 08:45:29;;;;;;;1.20;1.10;;;0.60;99.90;;;;;;7383696;19;20356;-80
2023/02/26 08:47:54;;;;;;;1.73;1.40;;;0.60;99.90;;;;;;7386672;19;20356;-83
2023/02/26 08:50:21;;;;;;;1.42;1.33;;;0.70;99.90;;;;;;7382591;19;20899;-79
2023/02/26 08:52:46;;;;;;;3.92;1.50;;;0.80;99.90;;;;;;7382973;19;20370;-80
2023/02/26 08:55:12;;;;;;;2.42;1.30;;;0.90;99.90;;;;;;7382293;19;20321;-85
2023/02/26 08:57:38;;;;;;;1.97;1.50;;;1.00;99.90;;;;;;7382701;19;20352;-80
2023/02/26 09:00:09;;;;;;;2.05;1.50;;;0.90;99.90;;;;;;7383469;19;20463;-80
2023/02/26 09:02:38;;;;;;;2.83;1.70;;;0.90;99.90;;;;;;7379922;19;21163;-83
2023/02/26 09:05:04;;;;;;;4.07;1.10;;;1.00;99.90;;;;;;7376221;19;20324;-79
2023/02/26 09:07:29;;;;;;;1.65;1.40;;;1.00;99.90;;;;;;7378390;19;20380;-78
2023/02/26 09:10:01;;;;;;;2.10;1.40;;;1.00;99.90;;;;;;7378460;19;20416;-79
2023/02/26 09:12:27;;;;;;;3.28;1.60;;;1.10;99.90;;;;;;7380984;19;20686;-80
2023/02/26 09:14:52;;;;;;;1.30;1.20;;;1.00;99.90;;;;;;7380716;19;20347;-87
2023/02/26 09:17:18;;;;;;;1.55;1.35;;;1.10;99.90;;;;;;7378456;19;20913;-78
2023/02/26 09:19:43;;;;;;;1.07;1.07;;;1.20;99.90;;;;;;7383388;19;20337;-81
2023/02/26 09:22:10;;;;;;;1.50;1.20;;;1.20;99.90;;;;;;7380002;19;20317;-78
2023/02/26 09:24:36;;;;;;;1.60;1.10;;;1.30;99.90;;;;;;7379736;19;20341;-79
2023/02/26 09:27:02;;;;;;;1.20;1.10;;;1.50;99.90;;;;;;7386670;19;20437;-82
2023/02/26 09:29:28;;;;;;;3.05;1.25;;;1.50;99.90;;;;;;7389555;19;20320;-87
2023/02/26 09:31:54;;;;;;;1.48;1.33;;;1.60;99.90;;;;;;7387075;19;20328;-88
2023/02/26 09:34:19;;;;;;;1.30;1.20;;;1.50;99.90;;;;;;7388630;19;20338;-88
2023/02/26 09:36:45;;;;;;;2.33;1.37;;;1.40;99.90;;;;;;7390032;19;20344;-82
2023/02/26 09:39:11;;;;;;;1.63;1.35;;;1.50;99.90;;;;;;7391961;19;20324;-92
2023/02/26 09:41:46;;;;;;;4.50;1.40;;;1.60;99.90;;;;;;7397714;19;20325;-84
2023/02/26 09:44:19;;;;;;;1.45;1.30;;;1.60;99.90;;;;;;7290202;19;2004696;-90
2023/02/26 09:46:56;;;;;;;2.67;1.10;;;1.60;99.90;;;;;;7396684;19;20354;-92
2023/02/26 09:49:27;;;;;;;1.85;1.30;;;1.70;99.90;;;;;;7398556;19;20345;-88
2023/02/26 09:51:57;;;;;;;2.50;1.17;;;1.70;99.90;;;;;;7389881;19;21078;-88
2023/02/26 09:54:29;;;;;;;1.87;1.30;;;1.60;99.90;;;;;;7383877;19;20701;-91
2023/02/26 09:56:58;;;;;;;1.98;1.33;;;1.50;99.90;;;;;;7385519;19;21253;-91
2023/02/26 09:59:24;;;;;;;3.05;1.20;;;1.60;99.90;;;;;;7391317;19;20386;-87
2023/02/26 10:02:02;;;;;;;1.80;1.30;;;1.50;99.90;;;;;;7385492;19;20358;-89
2023/02/26 10:04:52;;;;;;;1.48;1.27;;;1.60;99.90;;;;;;7388628;19;20349;-91
2023/02/26 10:07:28;;;;;;;1.75;1.33;;;1.70;99.90;;;;;;7286070;19;2004566;-91
2023/02/26 10:10:00;;;;;;;1.75;1.25;;;1.90;99.90;;;;;;7390199;19;20305;-92
2023/02/26 10:12:27;;;;;;;1.30;1.20;;;2.00;99.90;;;;;;7392609;19;20336;-87
2023/02/26 10:14:59;;;;;;;2.20;1.17;;;2.00;99.90;;;;;;7391081;19;20356;-92
2023/02/26 10:17:50;;;;;;;1.40;1.30;;;2.00;99.90;;;;;;7397086;19;20317;-92
2023/02/26 10:20:21;;;;;;;1.52;1.08;;;2.00;99.90;;;;;;7291686;19;2004185;-82
2023/02/26 10:23:32;;;;;;;1.88;1.33;;;1.90;99.90;;;;;;7391150;19;20309;-81
2023/02/26 10:26:11;;;;;;;1.90;1.40;;;1.90;99.90;;;;;;7289793;19;2004370;-87
2023/02/26 10:28:53;;;;;;;3.10;1.30;;;2.00;99.90;;;;;;7395415;19;20408;-84
2023/02/26 10:31:42;;;;;;;1.63;1.40;;;2.10;99.90;;;;;;7292218;19;2004334;-83
2023/02/26 10:34:31;;;;;;;1.58;1.48;;;2.10;99.90;;;;;;7394245;19;20312;-88
2023/02/26 10:37:09;;;;;;;1.45;1.15;;;2.20;99.90;;;;;;7287131;19;2004546;-86
2023/02/26 10:39:47;;;;;;;1.20;1.10;;;2.20;99.90;;;;;;7385665;19;21116;-86
2023/02/26 10:42:31;;;;;;;1.25;1.10;;;2.10;99.90;;;;;;7282442;19;2004692;-83
2023/02/26 10:45:26;;;;;;;2.60;1.27;;;2.10;99.90;;;;;;7383995;19;20782;-83
2023/02/26 10:48:19;;;;;;;1.20;1.10;;;2.20;99.90;;;;;;7283289;19;2004393;-87
2023/02/26 10:50:55;;;;;;;1.80;1.10;;;2.30;99.90;;;;;;7279784;19;2019834;-89
2023/02/26 10:53:21;;;;;;;2.30;1.53;;;2.30;99.90;;;;;;7384236;19;20340;-83
2023/02/26 10:55:56;;;;;;;2.60;1.20;;;2.20;99.90;;;;;;7390747;19;20713;-85
2023/02/26 10:58:23;;;;;;;2.47;1.40;;;2.20;99.90;;;;;;7397017;19;20316;-88
2023/02/26 11:00:52;;;;;;;1.77;1.23;;;2.40;99.90;;;;;;7397294;19;20312;-93
2023/02/26 11:03:36;;;;;;;3.10;1.40;;;2.40;99.90;;;;;;7393023;19;20336;-81
2023/02/26 11:06:03;;;;;;;2.17;1.30;;;2.70;99.90;;;;;;7389946;19;20313;-83
2023/02/26 11:08:32;;;;;;;1.10;1.00;;;2.70;99.90;;;;;;7392731;19;20327;-91
2023/02/26 11:11:02;;;;;;;1.20;1.10;;;2.70;99.90;;;;;;7396809;19;20301;-94
2023/02/26 11:13:31;;;;;;;3.65;1.33;;;2.70;99.90;;;;;;7397587;19;20363;-91
2023/02/26 11:15:59;;;;;;;4.05;1.48;;;2.90;99.90;;;;;;7392176;19;20400;-92
2023/02/26 11:18:48;;;;;;;1.40;1.30;;;3.00;99.90;;;;;;7393762;19;20324;-90
2023/02/26 11:21:34;;;;;;;2.50;1.40;;;3.20;99.90;;;;;;7287757;19;2004358;-85
2023/02/26 11:24:20;;;;;;;1.30;1.17;;;3.30;99.90;;;;;;7388383;19;20416;-80
2023/02/26 11:26:50;;;;;;;2.42;1.33;;;3.50;99.90;;;;;;7280875;19;2004183;-80
2023/02/26 11:29:20;;;;;;;2.83;1.33;;;3.40;99.90;;;;;;7382823;19;20321;-82
2023/02/26 11:31:54;;;;;;;1.67;1.10;;;3.20;99.90;;;;;;7384003;19;20410;-81
2023/02/26 11:34:28;;;;;;;3.60;1.60;;;3.50;99.90;;;;;;7382343;19;20411;-80
2023/02/26 11:36:57;;;;;;;1.40;1.08;;;3.90;99.90;;;;;;7384048;19;20665;-78
2023/02/26 11:39:25;;;;;;;1.63;1.20;;;4.00;99.90;;;;;;7386615;19;20449;-78
2023/02/26 11:41:52;;;;;;;1.30;1.17;;;3.90;99.90;;;;;;7380526;19;20311;-80
2023/02/26 11:44:38;;;;;;;1.20;1.10;;;3.50;99.90;;;;;;7386014;19;20335;-82
2023/02/26 11:47:12;;;;;;;1.50;1.30;;;3.50;99.90;;;;;;7385167;19;20312;-84
2023/02/26 11:49:41;;;;;;;1.88;1.23;;;3.40;99.90;;;;;;7386924;19;20312;-78
2023/02/26 11:52:10;;;;;;;1.58;1.15;;;3.40;99.90;;;;;;7282370;19;2004505;-84
2023/02/26 11:54:37;;;;;;;3.35;1.20;;;3.20;99.90;;;;;;7387669;19;20316;-81
2023/02/26 11:57:07;;;;;;;1.45;1.23;;;3.30;99.90;;;;;;7387532;19;20425;-81
2023/02/26 11:59:38;;;;;;;2.60;1.60;;;3.30;99.90;;;;;;7386060;19;20393;-79
2023/02/26 12:02:11;;;;;;;1.88;1.38;;;3.30;99.90;;;;;;7386594;19;20334;-85
2023/02/26 12:04:42;;;;;;;1.42;1.33;;;3.30;99.90;;;;;;7386802;19;20321;-89
2023/02/26 12:07:10;;;;;;;2.40;1.30;;;3.20;99.90;;;;;;7385367;19;20308;-82
2023/02/26 12:09:38;;;;;;;1.23;1.13;;;3.00;99.90;;;;;;7381987;19;20321;-82
2023/02/26 12:12:13;;;;;;;1.20;1.10;;;2.80;99.90;;;;;;7384157;19;20316;-82
2023/02/26 12:15:23;;;;;;;4.10;1.33;;;2.70;99.90;;;;;;7380734;19;20309;-82
2023/02/26 12:18:10;;;;;;;1.45;1.30;;;2.50;99.90;;;;;;7173932;19;2004360;-78
2023/02/26 12:20:44;;;;;;;1.25;1.10;;;2.50;99.90;;;;;;7382278;19;20321;-79
2023/02/26 12:23:13;;;;;;;2.10;1.53;;;2.60;99.90;;;;;;7288528;19;2004219;-83
2023/02/26 12:25:48;;;;;;;1.58;1.23;;;2.40;99.90;;;;;;7404194;19;20329;-86
2023/02/26 12:28:37;;;;;;;2.33;1.27;;;2.50;99.90;;;;;;7289018;19;2004577;-81
2023/02/26 12:31:23;;;;;;;1.30;1.20;;;2.30;99.90;;;;;;7400880;19;20320;-90
2023/02/26 12:34:14;;;;;;;1.42;1.25;;;2.50;99.90;;;;;;7297185;19;2004397;-81
2023/02/26 12:37:04;;;;;;;1.45;1.10;;;2.80;99.90;;;;;;7295510;19;2004589;-86
2023/02/26 12:39:58;;;;;;;1.70;1.40;;;3.20;99.90;;;;;;7399887;19;20384;-88
2023/02/26 12:42:42;;;;;;;1.33;1.23;;;3.40;99.90;;;;;;7299172;19;2004413;-87
2023/02/26 12:45:19;;;;;;;1.42;1.33;;;3.80;99.90;;;;;;7403200;19;20340;-88
2023/02/26 12:48:22;;;;;;;1.43;1.30;;;4.10;99.90;;;;;;7297539;19;2019808;-86
2023/02/26 12:51:10;;;;;;;1.85;1.30;;;4.40;99.90;;;;;;7300685;19;2004330;-85
2023/02/26 12:53:48;;;;;;;1.30;1.20;;;4.60;99.90;;;;;;7399482;19;20385;-88
2023/02/26 12:56:13;;;;;;;3.60;1.30;;;4.50;99.90;;;;;;7299878;19;2005837;-90
2023/02/26 12:59:16;;;;;;;2.50;1.20;;;4.70;99.90;;;;;;7407881;19;20340;-75
2023/02/26 13:02:02;;;;;;;3.35;1.30;;;5.00;99.90;;;;;;7195062;19;2004449;-83
2023/02/26 13:04:28;;;;;;;3.22;1.30;;;4.90;99.90;;;;;;7400188;19;20312;-92
2023/02/26 13:07:48;;;;;;;1.27;1.10;;;4.70;99.90;;;;;;7403273;19;20336;-87
2023/02/26 13:10:32;;;;;;;3.38;1.38;;;4.40;99.90;;;;;;7188899;19;2004348;-81
2023/02/26 13:13:20;;;;;;;1.40;1.30;;;4.20;99.90;;;;;;7400855;19;20922;-90
2023/02/26 13:16:10;;;;;;;1.80;1.30;;;3.40;99.90;;;;;;7293737;19;2017678;-85
2023/02/26 13:18:54;;;;;;;1.70;1.17;;;3.10;99.90;;;;;;7388324;19;20336;-81